sensor_id;sensor_type;location;lat;lon;timestamp;P1;durP1;ratioP1;P2;durP2;ratioP2
37647;SDS011;23490;53.656;10.076;2022-09-29T00:01:20;13.95;;;8.25;;
37647;SDS011;23490;53.656;10.076;2022-09-29T00:03:45;14.13;;;8.40;;
37647;SDS011;23490;53.656;10.076;2022-09-29T00:06:12;14.55;;;8.27;;
37647;SDS011;23490;53.656;10.076;2022-09-29T00:08:39;14.63;;;8.57;;
37647;SDS011;23490;53.656;10.076;2022-09-29T00:11:08;13.27;;;7.85;;
37647;SDS011;23490;53.656;10.076;2022-09-29T00:16:00;14.60;;;8.23;;
37647;SDS011;23490;53.656;10.076;2022-09-29T00:18:28;13.45;;;8.40;;
37647;SDS011;23490;53.656;10.076;2022-09-29T00:20:58;15.25;;;8.40;;
37647;SDS011;23490;53.656;10.076;2022-09-29T00:23:28;15.23;;;8.10;;
37647;SDS011;23490;53.656;10.076;2022-09-29T00:28:28;13.02;;;8.20;;
37647;SDS011;23490;53.656;10.076;2022-09-29T00:30:54;13.48;;;8.25;;
37647;SDS011;23490;53.656;10.076;2022-09-29T00:33:22;13.00;;;8.10;;
37647;SDS011;23490;53.656;10.076;2022-09-29T00:36:01;14.88;;;8.35;;
37647;SDS011;23490;53.656;10.076;2022-09-29T00:38:29;13.48;;;7.85;;
37647;SDS011;23490;53.656;10.076;2022-09-29T00:40:55;14.88;;;7.85;;
37647;SDS011;23490;53.656;10.076;2022-09-29T00:43:22;14.45;;;8.40;;
37647;SDS011;23490;53.656;10.076;2022-09-29T00:45:50;13.88;;;8.32;;
37647;SDS011;23490;53.656;10.076;2022-09-29T00:48:19;13.02;;;8.13;;
37647;SDS011;23490;53.656;10.076;2022-09-29T00:50:52;14.48;;;8.40;;
37647;SDS011;23490;53.656;10.076;2022-09-29T00:53:19;14.07;;;7.47;;
37647;SDS011;23490;53.656;10.076;2022-09-29T00:55:48;21.90;;;8.88;;
37647;SDS011;23490;53.656;10.076;2022-09-29T01:01:27;14.55;;;7.75;;
37647;SDS011;23490;53.656;10.076;2022-09-29T01:03:56;14.55;;;8.15;;
37647;SDS011;23490;53.656;10.076;2022-09-29T01:06:27;13.20;;;7.40;;
37647;SDS011;23490;53.656;10.076;2022-09-29T01:09:03;13.82;;;7.82;;
37647;SDS011;23490;53.656;10.076;2022-09-29T01:11:32;11.73;;;7.45;;
37647;SDS011;23490;53.656;10.076;2022-09-29T01:13:59;13.07;;;7.85;;
37647;SDS011;23490;53.656;10.076;2022-09-29T01:16:29;14.10;;;7.88;;
37647;SDS011;23490;53.656;10.076;2022-09-29T01:18:57;14.70;;;7.80;;
37647;SDS011;23490;53.656;10.076;2022-09-29T01:21:41;12.80;;;8.15;;
37647;SDS011;23490;53.656;10.076;2022-09-29T01:24:51;12.40;;;7.60;;
37647;SDS011;23490;53.656;10.076;2022-09-29T01:30:18;12.50;;;7.97;;
37647;SDS011;23490;53.656;10.076;2022-09-29T01:41:26;12.38;;;7.75;;
37647;SDS011;23490;53.656;10.076;2022-09-29T01:44:02;13.48;;;7.85;;
37647;SDS011;23490;53.656;10.076;2022-09-29T01:47:12;13.13;;;7.80;;
37647;SDS011;23490;53.656;10.076;2022-09-29T01:49:20;15.18;;;8.77;;
37647;SDS011;23490;53.656;10.076;2022-09-29T01:51:50;13.50;;;8.25;;
37647;SDS011;23490;53.656;10.076;2022-09-29T01:54:34;12.98;;;7.53;;
37647;SDS011;23490;53.656;10.076;2022-09-29T01:57:09;14.70;;;8.63;;
37647;SDS011;23490;53.656;10.076;2022-09-29T02:02:20;12.45;;;7.65;;
37647;SDS011;23490;53.656;10.076;2022-09-29T02:04:52;14.75;;;8.75;;
37647;SDS011;23490;53.656;10.076;2022-09-29T02:07:44;15.85;;;8.10;;
37647;SDS011;23490;53.656;10.076;2022-09-29T02:10:12;15.60;;;7.47;;
37647;SDS011;23490;53.656;10.076;2022-09-29T02:12:39;14.43;;;7.95;;
37647;SDS011;23490;53.656;10.076;2022-09-29T02:15:09;14.50;;;8.30;;
37647;SDS011;23490;53.656;10.076;2022-09-29T02:17:39;13.10;;;8.18;;
37647;SDS011;23490;53.656;10.076;2022-09-29T02:20:08;12.32;;;7.65;;
37647;SDS011;23490;53.656;10.076;2022-09-29T02:22:35;13.48;;;8.23;;
37647;SDS011;23490;53.656;10.076;2022-09-29T02:25:02;12.70;;;7.88;;
37647;SDS011;23490;53.656;10.076;2022-09-29T02:27:28;13.27;;;7.55;;
37647;SDS011;23490;53.656;10.076;2022-09-29T02:29:53;15.25;;;7.75;;
37647;SDS011;23490;53.656;10.076;2022-09-29T02:32:20;11.88;;;7.38;;
37647;SDS011;23490;53.656;10.076;2022-09-29T02:34:45;13.55;;;8.13;;
37647;SDS011;23490;53.656;10.076;2022-09-29T02:37:26;14.85;;;7.97;;
37647;SDS011;23490;53.656;10.076;2022-09-29T02:40:08;13.52;;;7.75;;
37647;SDS011;23490;53.656;10.076;2022-09-29T02:42:58;11.63;;;7.00;;
37647;SDS011;23490;53.656;10.076;2022-09-29T02:48:14;16.05;;;8.15;;
37647;SDS011;23490;53.656;10.076;2022-09-29T02:51:06;12.57;;;6.70;;
37647;SDS011;23490;53.656;10.076;2022-09-29T03:01:48;11.63;;;7.43;;
37647;SDS011;23490;53.656;10.076;2022-09-29T03:04:15;13.80;;;7.85;;
37647;SDS011;23490;53.656;10.076;2022-09-29T03:06:41;12.27;;;7.38;;
37647;SDS011;23490;53.656;10.076;2022-09-29T03:09:07;13.77;;;7.53;;
37647;SDS011;23490;53.656;10.076;2022-09-29T03:11:32;14.02;;;8.02;;
37647;SDS011;23490;53.656;10.076;2022-09-29T03:13:57;13.85;;;8.10;;
37647;SDS011;23490;53.656;10.076;2022-09-29T03:16:23;14.02;;;8.00;;
37647;SDS011;23490;53.656;10.076;2022-09-29T03:18:49;13.70;;;7.82;;
37647;SDS011;23490;53.656;10.076;2022-09-29T03:21:14;14.30;;;8.48;;
37647;SDS011;23490;53.656;10.076;2022-09-29T03:23:40;11.73;;;7.70;;
37647;SDS011;23490;53.656;10.076;2022-09-29T03:26:05;14.20;;;8.23;;
37647;SDS011;23490;53.656;10.076;2022-09-29T03:28:31;12.95;;;7.38;;
37647;SDS011;23490;53.656;10.076;2022-09-29T03:31:02;12.18;;;7.82;;
37647;SDS011;23490;53.656;10.076;2022-09-29T03:33:29;11.63;;;7.00;;
37647;SDS011;23490;53.656;10.076;2022-09-29T03:35:54;12.60;;;7.80;;
37647;SDS011;23490;53.656;10.076;2022-09-29T03:38:20;12.93;;;7.57;;
37647;SDS011;23490;53.656;10.076;2022-09-29T03:40:45;15.05;;;7.70;;
37647;SDS011;23490;53.656;10.076;2022-09-29T03:43:10;11.80;;;7.47;;
37647;SDS011;23490;53.656;10.076;2022-09-29T03:45:36;22.95;;;9.52;;
37647;SDS011;23490;53.656;10.076;2022-09-29T03:48:01;18.23;;;9.95;;
37647;SDS011;23490;53.656;10.076;2022-09-29T03:50:26;16.52;;;8.35;;
37647;SDS011;23490;53.656;10.076;2022-09-29T03:52:52;17.15;;;9.55;;
37647;SDS011;23490;53.656;10.076;2022-09-29T03:55:17;13.93;;;7.97;;
37647;SDS011;23490;53.656;10.076;2022-09-29T03:57:42;15.38;;;8.52;;
37647;SDS011;23490;53.656;10.076;2022-09-29T04:00:10;13.43;;;7.70;;
37647;SDS011;23490;53.656;10.076;2022-09-29T04:02:35;13.77;;;7.75;;
37647;SDS011;23490;53.656;10.076;2022-09-29T04:05:01;15.02;;;8.93;;
37647;SDS011;23490;53.656;10.076;2022-09-29T04:07:26;18.23;;;7.97;;
37647;SDS011;23490;53.656;10.076;2022-09-29T04:09:51;15.30;;;8.43;;
37647;SDS011;23490;53.656;10.076;2022-09-29T04:12:17;13.38;;;8.02;;
37647;SDS011;23490;53.656;10.076;2022-09-29T04:14:42;15.90;;;7.80;;
37647;SDS011;23490;53.656;10.076;2022-09-29T04:17:07;13.68;;;7.95;;
37647;SDS011;23490;53.656;10.076;2022-09-29T04:19:33;14.20;;;8.25;;
37647;SDS011;23490;53.656;10.076;2022-09-29T04:21:58;12.52;;;7.07;;
37647;SDS011;23490;53.656;10.076;2022-09-29T04:24:23;15.50;;;8.25;;
37647;SDS011;23490;53.656;10.076;2022-09-29T04:26:49;14.40;;;8.07;;
37647;SDS011;23490;53.656;10.076;2022-09-29T04:29:14;14.60;;;8.18;;
37647;SDS011;23490;53.656;10.076;2022-09-29T04:31:39;13.35;;;8.38;;
37647;SDS011;23490;53.656;10.076;2022-09-29T04:34:05;15.52;;;9.10;;
37647;SDS011;23490;53.656;10.076;2022-09-29T04:36:30;13.57;;;8.07;;
37647;SDS011;23490;53.656;10.076;2022-09-29T04:38:55;12.77;;;8.00;;
37647;SDS011;23490;53.656;10.076;2022-09-29T04:41:20;15.40;;;8.73;;
37647;SDS011;23490;53.656;10.076;2022-09-29T04:43:46;13.55;;;8.10;;
37647;SDS011;23490;53.656;10.076;2022-09-29T04:46:11;13.73;;;8.02;;
37647;SDS011;23490;53.656;10.076;2022-09-29T04:48:38;14.73;;;8.95;;
37647;SDS011;23490;53.656;10.076;2022-09-29T04:51:03;13.15;;;7.45;;
37647;SDS011;23490;53.656;10.076;2022-09-29T04:53:29;13.75;;;7.75;;
37647;SDS011;23490;53.656;10.076;2022-09-29T04:55:55;14.43;;;8.25;;
37647;SDS011;23490;53.656;10.076;2022-09-29T04:58:20;15.77;;;8.85;;
37647;SDS011;23490;53.656;10.076;2022-09-29T05:00:45;16.17;;;8.65;;
37647;SDS011;23490;53.656;10.076;2022-09-29T05:03:11;13.88;;;8.15;;
37647;SDS011;23490;53.656;10.076;2022-09-29T05:05:36;15.55;;;8.68;;
37647;SDS011;23490;53.656;10.076;2022-09-29T05:08:02;14.57;;;8.55;;
37647;SDS011;23490;53.656;10.076;2022-09-29T05:10:28;18.48;;;8.73;;
37647;SDS011;23490;53.656;10.076;2022-09-29T05:12:54;14.05;;;8.23;;
37647;SDS011;23490;53.656;10.076;2022-09-29T05:15:19;15.95;;;8.90;;
37647;SDS011;23490;53.656;10.076;2022-09-29T05:17:45;15.27;;;8.55;;
37647;SDS011;23490;53.656;10.076;2022-09-29T05:20:11;14.50;;;9.25;;
37647;SDS011;23490;53.656;10.076;2022-09-29T05:22:37;14.60;;;8.38;;
37647;SDS011;23490;53.656;10.076;2022-09-29T05:25:03;18.33;;;8.80;;
37647;SDS011;23490;53.656;10.076;2022-09-29T05:27:28;13.90;;;8.60;;
37647;SDS011;23490;53.656;10.076;2022-09-29T05:29:54;14.13;;;9.18;;
37647;SDS011;23490;53.656;10.076;2022-09-29T05:32:19;16.17;;;8.85;;
37647;SDS011;23490;53.656;10.076;2022-09-29T05:34:44;14.82;;;8.82;;
37647;SDS011;23490;53.656;10.076;2022-09-29T05:37:10;14.60;;;8.48;;
37647;SDS011;23490;53.656;10.076;2022-09-29T05:39:35;18.40;;;9.50;;
37647;SDS011;23490;53.656;10.076;2022-09-29T05:42:01;19.92;;;9.20;;
37647;SDS011;23490;53.656;10.076;2022-09-29T05:44:28;12.77;;;8.25;;
37647;SDS011;23490;53.656;10.076;2022-09-29T05:46:53;15.18;;;8.95;;
37647;SDS011;23490;53.656;10.076;2022-09-29T05:49:19;16.52;;;8.73;;
37647;SDS011;23490;53.656;10.076;2022-09-29T05:51:44;14.35;;;8.65;;
37647;SDS011;23490;53.656;10.076;2022-09-29T05:54:10;16.33;;;8.52;;
37647;SDS011;23490;53.656;10.076;2022-09-29T05:56:35;17.48;;;8.75;;
37647;SDS011;23490;53.656;10.076;2022-09-29T05:59:01;16.52;;;9.73;;
37647;SDS011;23490;53.656;10.076;2022-09-29T06:01:26;16.70;;;9.57;;
37647;SDS011;23490;53.656;10.076;2022-09-29T06:03:52;16.83;;;9.38;;
37647;SDS011;23490;53.656;10.076;2022-09-29T06:06:25;18.02;;;9.68;;
37647;SDS011;23490;53.656;10.076;2022-09-29T06:08:52;15.82;;;9.50;;
37647;SDS011;23490;53.656;10.076;2022-09-29T06:11:19;16.98;;;10.38;;
37647;SDS011;23490;53.656;10.076;2022-09-29T06:13:48;15.90;;;10.13;;
37647;SDS011;23490;53.656;10.076;2022-09-29T06:16:15;17.10;;;10.50;;
37647;SDS011;23490;53.656;10.076;2022-09-29T06:18:43;16.13;;;10.38;;
37647;SDS011;23490;53.656;10.076;2022-09-29T06:21:14;19.85;;;10.18;;
37647;SDS011;23490;53.656;10.076;2022-09-29T06:23:41;18.83;;;11.15;;
37647;SDS011;23490;53.656;10.076;2022-09-29T06:26:08;20.52;;;10.00;;
37647;SDS011;23490;53.656;10.076;2022-09-29T06:28:35;19.08;;;10.45;;
37647;SDS011;23490;53.656;10.076;2022-09-29T06:31:04;19.30;;;10.75;;
37647;SDS011;23490;53.656;10.076;2022-09-29T06:33:32;16.17;;;10.80;;
37647;SDS011;23490;53.656;10.076;2022-09-29T06:36:00;20.65;;;11.30;;
37647;SDS011;23490;53.656;10.076;2022-09-29T06:38:48;21.23;;;10.85;;
37647;SDS011;23490;53.656;10.076;2022-09-29T06:41:13;20.92;;;12.65;;
37647;SDS011;23490;53.656;10.076;2022-09-29T06:43:38;20.08;;;10.68;;
37647;SDS011;23490;53.656;10.076;2022-09-29T06:46:04;21.63;;;11.13;;
37647;SDS011;23490;53.656;10.076;2022-09-29T06:48:29;19.20;;;10.65;;
37647;SDS011;23490;53.656;10.076;2022-09-29T06:50:55;21.80;;;10.98;;
37647;SDS011;23490;53.656;10.076;2022-09-29T06:53:21;18.77;;;10.30;;
37647;SDS011;23490;53.656;10.076;2022-09-29T06:55:53;24.88;;;11.80;;
37647;SDS011;23490;53.656;10.076;2022-09-29T06:58:20;20.58;;;11.43;;
37647;SDS011;23490;53.656;10.076;2022-09-29T07:00:46;25.75;;;12.10;;
37647;SDS011;23490;53.656;10.076;2022-09-29T07:03:12;20.42;;;12.43;;
37647;SDS011;23490;53.656;10.076;2022-09-29T07:05:37;19.52;;;11.80;;
37647;SDS011;23490;53.656;10.076;2022-09-29T07:08:03;19.75;;;10.80;;
37647;SDS011;23490;53.656;10.076;2022-09-29T07:10:28;19.95;;;11.45;;
37647;SDS011;23490;53.656;10.076;2022-09-29T07:12:54;17.17;;;12.20;;
37647;SDS011;23490;53.656;10.076;2022-09-29T07:15:19;21.58;;;12.52;;
37647;SDS011;23490;53.656;10.076;2022-09-29T07:17:45;21.60;;;12.00;;
37647;SDS011;23490;53.656;10.076;2022-09-29T07:20:14;19.70;;;12.15;;
37647;SDS011;23490;53.656;10.076;2022-09-29T07:22:40;21.50;;;11.70;;
37647;SDS011;23490;53.656;10.076;2022-09-29T07:25:05;20.95;;;12.13;;
37647;SDS011;23490;53.656;10.076;2022-09-29T07:27:31;23.27;;;12.63;;
37647;SDS011;23490;53.656;10.076;2022-09-29T07:29:58;19.00;;;12.70;;
37647;SDS011;23490;53.656;10.076;2022-09-29T07:32:23;25.90;;;13.30;;
37647;SDS011;23490;53.656;10.076;2022-09-29T07:34:50;19.45;;;12.65;;
37647;SDS011;23490;53.656;10.076;2022-09-29T07:37:16;21.45;;;13.82;;
37647;SDS011;23490;53.656;10.076;2022-09-29T07:39:41;29.25;;;13.20;;
37647;SDS011;23490;53.656;10.076;2022-09-29T07:42:07;20.20;;;12.52;;
37647;SDS011;23490;53.656;10.076;2022-09-29T07:44:32;19.92;;;12.88;;
37647;SDS011;23490;53.656;10.076;2022-09-29T07:46:57;22.02;;;14.13;;
37647;SDS011;23490;53.656;10.076;2022-09-29T07:49:23;22.42;;;13.10;;
37647;SDS011;23490;53.656;10.076;2022-09-29T07:51:49;27.08;;;14.43;;
37647;SDS011;23490;53.656;10.076;2022-09-29T07:54:14;23.63;;;14.63;;
37647;SDS011;23490;53.656;10.076;2022-09-29T07:56:40;24.25;;;13.25;;
37647;SDS011;23490;53.656;10.076;2022-09-29T07:59:05;20.95;;;13.65;;
37647;SDS011;23490;53.656;10.076;2022-09-29T08:01:30;21.20;;;13.70;;
37647;SDS011;23490;53.656;10.076;2022-09-29T08:03:56;22.73;;;14.77;;
37647;SDS011;23490;53.656;10.076;2022-09-29T08:06:22;18.45;;;12.85;;
37647;SDS011;23490;53.656;10.076;2022-09-29T08:08:49;21.67;;;13.45;;
37647;SDS011;23490;53.656;10.076;2022-09-29T08:11:15;22.70;;;14.90;;
37647;SDS011;23490;53.656;10.076;2022-09-29T08:13:42;21.33;;;13.43;;
37647;SDS011;23490;53.656;10.076;2022-09-29T08:16:10;21.45;;;13.18;;
37647;SDS011;23490;53.656;10.076;2022-09-29T08:18:37;21.75;;;13.65;;
37647;SDS011;23490;53.656;10.076;2022-09-29T08:21:03;18.73;;;12.73;;
37647;SDS011;23490;53.656;10.076;2022-09-29T08:23:29;18.65;;;11.27;;
37647;SDS011;23490;53.656;10.076;2022-09-29T08:26:18;22.38;;;13.90;;
37647;SDS011;23490;53.656;10.076;2022-09-29T08:28:45;19.75;;;13.05;;
37647;SDS011;23490;53.656;10.076;2022-09-29T08:31:13;19.08;;;12.18;;
37647;SDS011;23490;53.656;10.076;2022-09-29T08:33:44;18.80;;;12.82;;
37647;SDS011;23490;53.656;10.076;2022-09-29T08:36:09;19.13;;;12.77;;
37647;SDS011;23490;53.656;10.076;2022-09-29T08:38:41;19.33;;;11.73;;
37647;SDS011;23490;53.656;10.076;2022-09-29T08:41:19;18.38;;;12.40;;
37647;SDS011;23490;53.656;10.076;2022-09-29T08:46:38;18.83;;;11.90;;
37647;SDS011;23490;53.656;10.076;2022-09-29T08:52:09;16.13;;;11.82;;
37647;SDS011;23490;53.656;10.076;2022-09-29T08:54:38;19.25;;;11.63;;
37647;SDS011;23490;53.656;10.076;2022-09-29T08:57:13;19.02;;;11.45;;
37647;SDS011;23490;53.656;10.076;2022-09-29T09:00:05;18.02;;;11.55;;
37647;SDS011;23490;53.656;10.076;2022-09-29T09:02:39;18.98;;;11.57;;
37647;SDS011;23490;53.656;10.076;2022-09-29T09:05:31;15.30;;;10.70;;
37647;SDS011;23490;53.656;10.076;2022-09-29T09:08:14;16.67;;;11.80;;
37647;SDS011;23490;53.656;10.076;2022-09-29T09:10:48;20.00;;;11.65;;
37647;SDS011;23490;53.656;10.076;2022-09-29T09:13:24;15.13;;;10.75;;
37647;SDS011;23490;53.656;10.076;2022-09-29T09:16:10;18.55;;;12.52;;
37647;SDS011;23490;53.656;10.076;2022-09-29T09:19:08;16.10;;;10.00;;
37647;SDS011;23490;53.656;10.076;2022-09-29T09:21:39;16.10;;;10.02;;
37647;SDS011;23490;53.656;10.076;2022-09-29T09:24:16;13.55;;;10.20;;
37647;SDS011;23490;53.656;10.076;2022-09-29T09:26:51;16.23;;;10.25;;
37647;SDS011;23490;53.656;10.076;2022-09-29T09:31:49;14.27;;;9.80;;
37647;SDS011;23490;53.656;10.076;2022-09-29T09:36:54;14.98;;;10.02;;
37647;SDS011;23490;53.656;10.076;2022-09-29T09:39:26;16.48;;;10.02;;
37647;SDS011;23490;53.656;10.076;2022-09-29T09:41:56;15.45;;;10.43;;
37647;SDS011;23490;53.656;10.076;2022-09-29T09:44:33;14.48;;;9.57;;
37647;SDS011;23490;53.656;10.076;2022-09-29T09:48:03;13.77;;;9.17;;
37647;SDS011;23490;53.656;10.076;2022-09-29T09:50:12;15.57;;;9.48;;
37647;SDS011;23490;53.656;10.076;2022-09-29T09:52:40;13.98;;;7.95;;
37647;SDS011;23490;53.656;10.076;2022-09-29T09:55:14;11.10;;;7.80;;
37647;SDS011;23490;53.656;10.076;2022-09-29T09:57:54;10.73;;;8.10;;
37647;SDS011;23490;53.656;10.076;2022-09-29T10:00:38;11.13;;;8.00;;
37647;SDS011;23490;53.656;10.076;2022-09-29T10:03:09;11.15;;;7.22;;
37647;SDS011;23490;53.656;10.076;2022-09-29T10:05:36;15.43;;;8.27;;
37647;SDS011;23490;53.656;10.076;2022-09-29T10:08:37;12.82;;;7.75;;
37647;SDS011;23490;53.656;10.076;2022-09-29T10:11:04;10.20;;;7.30;;
37647;SDS011;23490;53.656;10.076;2022-09-29T10:13:40;10.88;;;7.45;;
37647;SDS011;23490;53.656;10.076;2022-09-29T10:16:11;9.90;;;7.40;;
37647;SDS011;23490;53.656;10.076;2022-09-29T10:23:54;10.00;;;7.45;;
37647;SDS011;23490;53.656;10.076;2022-09-29T10:26:22;10.85;;;7.28;;
37647;SDS011;23490;53.656;10.076;2022-09-29T10:28:57;9.32;;;6.78;;
37647;SDS011;23490;53.656;10.076;2022-09-29T10:33:55;10.90;;;6.45;;
37647;SDS011;23490;53.656;10.076;2022-09-29T10:36:23;10.30;;;7.03;;
37647;SDS011;23490;53.656;10.076;2022-09-29T10:38:50;10.70;;;6.85;;
37647;SDS011;23490;53.656;10.076;2022-09-29T10:41:17;11.50;;;6.10;;
37647;SDS011;23490;53.656;10.076;2022-09-29T10:43:44;9.25;;;6.40;;
37647;SDS011;23490;53.656;10.076;2022-09-29T10:49:08;11.05;;;7.05;;
37647;SDS011;23490;53.656;10.076;2022-09-29T10:51:39;11.25;;;7.65;;
37647;SDS011;23490;53.656;10.076;2022-09-29T10:54:13;11.60;;;7.43;;
37647;SDS011;23490;53.656;10.076;2022-09-29T11:02:38;10.55;;;7.53;;
37647;SDS011;23490;53.656;10.076;2022-09-29T11:05:16;10.65;;;7.78;;
37647;SDS011;23490;53.656;10.076;2022-09-29T11:07:44;10.82;;;7.65;;
37647;SDS011;23490;53.656;10.076;2022-09-29T11:15:44;11.18;;;8.50;;
37647;SDS011;23490;53.656;10.076;2022-09-29T11:18:19;12.38;;;8.30;;
37647;SDS011;23490;53.656;10.076;2022-09-29T11:20:50;11.98;;;7.55;;
37647;SDS011;23490;53.656;10.076;2022-09-29T11:23:29;11.05;;;8.13;;
37647;SDS011;23490;53.656;10.076;2022-09-29T11:26:10;12.48;;;8.15;;
37647;SDS011;23490;53.656;10.076;2022-09-29T11:31:44;12.20;;;8.63;;
37647;SDS011;23490;53.656;10.076;2022-09-29T11:37:32;12.68;;;8.00;;
37647;SDS011;23490;53.656;10.076;2022-09-29T11:40:27;11.75;;;7.88;;
37647;SDS011;23490;53.656;10.076;2022-09-29T11:46:11;12.20;;;7.53;;
37647;SDS011;23490;53.656;10.076;2022-09-29T11:48:53;12.68;;;8.57;;
37647;SDS011;23490;53.656;10.076;2022-09-29T11:51:33;11.97;;;7.90;;
37647;SDS011;23490;53.656;10.076;2022-09-29T12:02:37;10.93;;;6.43;;
37647;SDS011;23490;53.656;10.076;2022-09-29T12:05:46;11.10;;;5.97;;
37647;SDS011;23490;53.656;10.076;2022-09-29T12:11:42;8.73;;;5.72;;
37647;SDS011;23490;53.656;10.076;2022-09-29T12:14:24;8.95;;;5.25;;
37647;SDS011;23490;53.656;10.076;2022-09-29T12:17:00;9.15;;;6.22;;
37647;SDS011;23490;53.656;10.076;2022-09-29T12:19:30;9.43;;;5.22;;
37647;SDS011;23490;53.656;10.076;2022-09-29T12:22:01;7.15;;;5.30;;
37647;SDS011;23490;53.656;10.076;2022-09-29T12:24:33;10.13;;;5.88;;
37647;SDS011;23490;53.656;10.076;2022-09-29T12:27:02;7.22;;;5.20;;
37647;SDS011;23490;53.656;10.076;2022-09-29T12:29:36;9.73;;;5.47;;
37647;SDS011;23490;53.656;10.076;2022-09-29T12:32:12;7.13;;;4.95;;
37647;SDS011;23490;53.656;10.076;2022-09-29T12:34:47;8.13;;;5.05;;
37647;SDS011;23490;53.656;10.076;2022-09-29T12:37:22;7.93;;;5.43;;
37647;SDS011;23490;53.656;10.076;2022-09-29T12:43:03;7.85;;;4.90;;
37647;SDS011;23490;53.656;10.076;2022-09-29T12:56:44;7.03;;;4.10;;
37647;SDS011;23490;53.656;10.076;2022-09-29T12:59:24;8.48;;;3.92;;
37647;SDS011;23490;53.656;10.076;2022-09-29T13:01:57;7.45;;;3.90;;
37647;SDS011;23490;53.656;10.076;2022-09-29T13:12:58;8.95;;;3.58;;
37647;SDS011;23490;53.656;10.076;2022-09-29T13:18:39;5.38;;;3.35;;
37647;SDS011;23490;53.656;10.076;2022-09-29T13:21:13;6.90;;;4.22;;
37647;SDS011;23490;53.656;10.076;2022-09-29T13:23:52;6.45;;;4.55;;
37647;SDS011;23490;53.656;10.076;2022-09-29T13:29:23;6.50;;;4.10;;
37647;SDS011;23490;53.656;10.076;2022-09-29T13:31:51;7.38;;;4.60;;
37647;SDS011;23490;53.656;10.076;2022-09-29T13:34:31;7.32;;;4.88;;
37647;SDS011;23490;53.656;10.076;2022-09-29T13:37:41;7.57;;;5.18;;
37647;SDS011;23490;53.656;10.076;2022-09-29T13:39:59;8.73;;;5.90;;
37647;SDS011;23490;53.656;10.076;2022-09-29T13:42:48;8.35;;;5.57;;
37647;SDS011;23490;53.656;10.076;2022-09-29T13:48:01;10.02;;;6.05;;
37647;SDS011;23490;53.656;10.076;2022-09-29T13:50:48;8.68;;;6.53;;
37647;SDS011;23490;53.656;10.076;2022-09-29T13:58:33;10.13;;;7.43;;
37647;SDS011;23490;53.656;10.076;2022-09-29T14:01:03;11.02;;;8.05;;
37647;SDS011;23490;53.656;10.076;2022-09-29T14:03:33;11.73;;;8.45;;
37647;SDS011;23490;53.656;10.076;2022-09-29T14:06:18;12.88;;;8.77;;
37647;SDS011;23490;53.656;10.076;2022-09-29T14:08:50;11.15;;;7.65;;
37647;SDS011;23490;53.656;10.076;2022-09-29T14:11:29;11.45;;;8.38;;
37647;SDS011;23490;53.656;10.076;2022-09-29T14:14:06;12.75;;;8.98;;
37647;SDS011;23490;53.656;10.076;2022-09-29T14:16:58;12.32;;;8.88;;
37647;SDS011;23490;53.656;10.076;2022-09-29T14:19:32;12.02;;;9.65;;
37647;SDS011;23490;53.656;10.076;2022-09-29T14:22:49;11.77;;;9.40;;
37647;SDS011;23490;53.656;10.076;2022-09-29T14:27:44;12.45;;;9.60;;
37647;SDS011;23490;53.656;10.076;2022-09-29T14:30:17;14.52;;;9.98;;
37647;SDS011;23490;53.656;10.076;2022-09-29T14:32:53;14.60;;;10.95;;
37647;SDS011;23490;53.656;10.076;2022-09-29T14:35:33;13.30;;;10.52;;
37647;SDS011;23490;53.656;10.076;2022-09-29T14:38:19;15.18;;;10.70;;
37647;SDS011;23490;53.656;10.076;2022-09-29T14:46:14;13.93;;;10.57;;
37647;SDS011;23490;53.656;10.076;2022-09-29T14:57:43;11.98;;;9.40;;
37647;SDS011;23490;53.656;10.076;2022-09-29T15:00:19;13.70;;;10.13;;
37647;SDS011;23490;53.656;10.076;2022-09-29T15:02:51;14.15;;;9.80;;
37647;SDS011;23490;53.656;10.076;2022-09-29T15:07:53;13.75;;;10.40;;
37647;SDS011;23490;53.656;10.076;2022-09-29T15:10:21;14.30;;;10.43;;
37647;SDS011;23490;53.656;10.076;2022-09-29T15:12:52;14.45;;;10.02;;
37647;SDS011;23490;53.656;10.076;2022-09-29T15:15:37;13.02;;;10.30;;
37647;SDS011;23490;53.656;10.076;2022-09-29T15:18:14;13.38;;;10.63;;
37647;SDS011;23490;53.656;10.076;2022-09-29T15:26:52;14.18;;;10.88;;
37647;SDS011;23490;53.656;10.076;2022-09-29T15:29:18;17.95;;;11.15;;
37647;SDS011;23490;53.656;10.076;2022-09-29T15:31:44;17.05;;;11.70;;
37647;SDS011;23490;53.656;10.076;2022-09-29T15:34:13;16.25;;;11.48;;
37647;SDS011;23490;53.656;10.076;2022-09-29T15:36:42;16.05;;;11.45;;
37647;SDS011;23490;53.656;10.076;2022-09-29T15:39:20;15.80;;;11.27;;
37647;SDS011;23490;53.656;10.076;2022-09-29T15:42:08;18.98;;;11.73;;
37647;SDS011;23490;53.656;10.076;2022-09-29T15:44:39;21.23;;;13.43;;
37647;SDS011;23490;53.656;10.076;2022-09-29T15:47:17;17.40;;;13.15;;
37647;SDS011;23490;53.656;10.076;2022-09-29T15:49:50;17.25;;;12.48;;
37647;SDS011;23490;53.656;10.076;2022-09-29T15:52:16;18.00;;;12.68;;
37647;SDS011;23490;53.656;10.076;2022-09-29T15:54:48;17.58;;;11.95;;
37647;SDS011;23490;53.656;10.076;2022-09-29T16:02:47;19.73;;;12.27;;
37647;SDS011;23490;53.656;10.076;2022-09-29T16:05:22;17.92;;;11.45;;
37647;SDS011;23490;53.656;10.076;2022-09-29T16:07:57;16.75;;;11.07;;
37647;SDS011;23490;53.656;10.076;2022-09-29T16:10:29;18.80;;;11.60;;
37647;SDS011;23490;53.656;10.076;2022-09-29T16:12:59;17.17;;;12.00;;
37647;SDS011;23490;53.656;10.076;2022-09-29T16:15:36;16.98;;;11.82;;
37647;SDS011;23490;53.656;10.076;2022-09-29T16:18:07;18.23;;;12.18;;
37647;SDS011;23490;53.656;10.076;2022-09-29T16:20:37;16.02;;;11.43;;
37647;SDS011;23490;53.656;10.076;2022-09-29T16:26:15;16.70;;;11.00;;
37647;SDS011;23490;53.656;10.076;2022-09-29T16:33:59;16.65;;;11.32;;
37647;SDS011;23490;53.656;10.076;2022-09-29T16:39:01;17.05;;;11.48;;
37647;SDS011;23490;53.656;10.076;2022-09-29T16:49:50;13.05;;;9.52;;
37647;SDS011;23490;53.656;10.076;2022-09-29T16:52:19;13.10;;;8.85;;
37647;SDS011;23490;53.656;10.076;2022-09-29T16:54:47;12.05;;;8.52;;
37647;SDS011;23490;53.656;10.076;2022-09-29T16:57:21;13.15;;;8.75;;
37647;SDS011;23490;53.656;10.076;2022-09-29T16:59:54;11.98;;;8.73;;
37647;SDS011;23490;53.656;10.076;2022-09-29T17:02:41;12.88;;;9.30;;
37647;SDS011;23490;53.656;10.076;2022-09-29T17:05:07;13.52;;;9.30;;
37647;SDS011;23490;53.656;10.076;2022-09-29T17:07:36;12.68;;;9.30;;
37647;SDS011;23490;53.656;10.076;2022-09-29T17:10:04;12.57;;;9.98;;
37647;SDS011;23490;53.656;10.076;2022-09-29T17:12:31;15.40;;;10.95;;
37647;SDS011;23490;53.656;10.076;2022-09-29T17:14:57;13.05;;;9.95;;
37647;SDS011;23490;53.656;10.076;2022-09-29T17:17:26;17.25;;;10.85;;
37647;SDS011;23490;53.656;10.076;2022-09-29T17:19:52;15.30;;;11.07;;
37647;SDS011;23490;53.656;10.076;2022-09-29T17:22:33;12.98;;;10.23;;
37647;SDS011;23490;53.656;10.076;2022-09-29T17:25:00;13.40;;;10.00;;
37647;SDS011;23490;53.656;10.076;2022-09-29T17:27:27;14.02;;;9.25;;
37647;SDS011;23490;53.656;10.076;2022-09-29T17:30:14;11.80;;;9.43;;
37647;SDS011;23490;53.656;10.076;2022-09-29T17:32:47;13.80;;;9.13;;
37647;SDS011;23490;53.656;10.076;2022-09-29T17:35:14;14.38;;;10.05;;